Summitville, IN (46070)

6:17 PM EDT on May 27, 2015 (GMT -0400)
Pipe Creek Township Alexandria/Frankton | | Change Station
CLOSE
Current Station
Personal Weather Station
Location: Alexandria, IN
Elevation: 860 ft
Nearby Weather Stations

Elev 860 ft 40.25 °N, 85.75 °W | Updated 7 minutes ago

Mostly Cloudy
Mostly Cloudy
77.7 °F
Feels Like 79 °F
N
8.3
Wind Variable Wind from WNW

Today
High -- | Low -- °F
--% Chance of Precip.
Yesterday
High -- | Low -- °F
Precip. -- in
6:17 AM 9:02 PM
Waxing Gibbous, 70% visible
Pressure 30.04 in
Visibility 7.0 miles
Clouds Scattered Clouds 6500 ft
Mostly Cloudy 7500 ft
Overcast 9500 ft
Heat Index 79 °F
Dew Point 62 °F
Humidity 58%
Rainfall 0.00 in
Snow Depth Not available.
UV 1 out of 12
Pollen 9.10 out of 12
Air Quality Not available.
Flu Activity Sporadic
METAR KMZZ 272155Z AUTO 31011KT 7SM SCT065 BKN075 OVC095 22/16 A3004 RMK AO2 T02160162

More Conditions Fewer Conditions

Pressure 30.04 in
Visibility 7.0 miles
Clouds Scattered Clouds 6500 ft
Mostly Cloudy 7500 ft
Overcast 9500 ft
Heat Index 79 °F
Dew Point 62 °F
Humidity 58%
Rainfall 0.00 in
Snow Depth Not available.
UV 1 out of 12
Pollen 9.10 out of 12
Air Quality Not available.
Flu Activity Sporadic
METAR KMZZ 272155Z AUTO 31011KT 7SM SCT065 BKN075 OVC095 22/16 A3004 RMK AO2 T02160162

More Conditions Fewer Conditions

10-Day Weather Forecast

Almanac

Astronomy

May. 27, 2015 Rise Set
Actual Time
Civil Twilight
Nautical Twilight
Astronomical Twilight
Moon
Length of Visible Light
Length of Day
Tomorrow will be .
, % of the Moon is Illuminated

Today's Extremes

State Highs State Lows

Community

WunderPhotos

Upload Photos

1,824,809 photos uploaded!

WunderBlogs® & News

Nearby

Air Quality

  Air Quality AQ Index Pollutant
Not available.

Snow Depth

Station Depth Elevation

Earthquake Activity

City Distance Mag. Time & Date
Minimum magnitude displayed is 2.5.

Coastal Water Temperatures

Place Temperature

Stations

Nearby Weather Stations

Station Location Temp. Windchill Dew Point Humidity Wind Precip. Elev Updated Type